Check out our new PWSWeather beta!
PWSweather.com
Personal Weather Stations
Station Observations

YeovilGB

Lat: 50.949, Lon: -2.627

Elevation: 70

Station Type: Vantage Pro

http://www.yeovil-weather.me.uk/

High Low Average
Temperature 52.3°F11.3°C 45.1°F7.3°C 48.9°F9.4°C
Dew Point 51.1°F10.6°C 44.1°F6.7°C 47.5°F8.6°C
Winds 6.9 mph 11.1 kmh Calm Calm 1.0 mph SSW1.6 kmh SSW
Wind Gusts 12.7 mph20.4 kmh -- 3.0 mph4.8 kmh
Humidity 98% 91% 95%
Pressure 29.25 in990.5 mb 28.96 in980.7 mb -
Precipitation 0.04 in1.0 mm - -
Hour Temp Dew Point Humidity Winds Wind Gusts Pressure Precip Precip Rate Daily Precip Total
12:00 AM 49.7°F9.8°C 48.0°F8.9°C 94% 1.2 mph SSE1.9 kmh SSE 4.6 mph7.4 kmh 29.09 in985.1 mb - 0.01 in0.3 mm 0.01 in0.3 mm
12:10 AM 49.4°F9.7°C 47.7°F8.7°C 94% Calm Calm 2.3 mph3.7 kmh 29.08 in984.8 mb - 0.00 in0.0 mm 0.01 in0.3 mm
12:20 AM 49.2°F9.6°C 47.5°F8.6°C 94% Calm Calm -- 29.07 in984.4 mb - 0.01 in0.3 mm 0.01 in0.3 mm
12:30 AM 49.1°F9.5°C 47.7°F8.7°C 95% Calm Calm -- 29.06 in984.1 mb - 0.00 in0.0 mm 0.01 in0.3 mm
12:40 AM 49.0°F9.4°C 47.6°F8.7°C 95% Calm Calm -- 29.06 in984.1 mb - 0.00 in0.0 mm 0.01 in0.3 mm
12:50 AM 49.0°F9.4°C 47.6°F8.7°C 95% Calm Calm -- 29.06 in984.1 mb - 0.00 in0.0 mm 0.01 in0.3 mm
01:00 AM 49.0°F9.4°C 47.6°F8.7°C 95% Calm Calm -- 29.05 in983.7 mb - 0.00 in0.0 mm 0.01 in0.3 mm
01:10 AM 49.0°F9.4°C 47.6°F8.7°C 95% Calm Calm -- 29.04 in983.4 mb - 0.00 in0.0 mm 0.01 in0.3 mm
01:20 AM 48.8°F9.3°C 47.5°F8.6°C 95% Calm Calm -- 29.04 in983.4 mb - 0.01 in0.3 mm 0.02 in0.5 mm
01:30 AM 48.7°F9.3°C 47.3°F8.5°C 95% Calm Calm -- 29.03 in983.1 mb - 0.00 in0.0 mm 0.02 in0.5 mm
01:40 AM 48.6°F9.2°C 47.5°F8.6°C 96% Calm Calm -- 29.03 in983.1 mb - 0.00 in0.0 mm 0.02 in0.5 mm
01:50 AM 48.5°F9.2°C 47.4°F8.6°C 96% Calm Calm 2.3 mph3.7 kmh 29.03 in983.1 mb - 0.00 in0.0 mm 0.02 in0.5 mm
02:00 AM 48.4°F9.1°C 47.3°F8.5°C 96% Calm Calm 3.5 mph5.6 kmh 29.03 in983.1 mb - 0.00 in0.0 mm 0.02 in0.5 mm
02:10 AM 48.4°F9.1°C 47.3°F8.5°C 96% Calm Calm -- 29.03 in983.1 mb - 0.00 in0.0 mm 0.02 in0.5 mm
02:20 AM 48.4°F9.1°C 47.3°F8.5°C 96% Calm Calm -- 29.03 in983.1 mb - 0.00 in0.0 mm 0.02 in0.5 mm
02:30 AM 48.4°F9.1°C 47.3°F8.5°C 96% Calm Calm -- 29.03 in983.1 mb - 0.00 in0.0 mm 0.02 in0.5 mm
02:40 AM 48.5°F9.2°C 47.4°F8.6°C 96% Calm Calm 1.2 mph1.9 kmh 29.03 in983.1 mb - 0.00 in0.0 mm 0.02 in0.5 mm
02:50 AM 48.5°F9.2°C 47.4°F8.6°C 96% Calm Calm -- 29.02 in982.7 mb - 0.00 in0.0 mm 0.02 in0.5 mm
03:00 AM 48.4°F9.1°C 47.4°F8.6°C 96% Calm Calm -- 29.02 in982.7 mb - 0.00 in0.0 mm 0.02 in0.5 mm
03:10 AM 48.5°F9.2°C 47.4°F8.6°C 96% 1.2 mph S1.9 kmh S 2.3 mph3.7 kmh 29.03 in983.1 mb - 0.01 in0.3 mm 0.02 in0.5 mm
03:20 AM 48.6°F9.2°C 47.6°F8.7°C 96% Calm Calm -- 29.02 in982.7 mb - 0.01 in0.3 mm 0.02 in0.5 mm
03:30 AM 48.6°F9.2°C 47.5°F8.6°C 96% Calm Calm -- 29.02 in982.7 mb - 0.00 in0.0 mm 0.02 in0.5 mm
03:40 AM 48.3°F9.1°C 47.2°F8.4°C 96% Calm Calm -- 29.02 in982.7 mb - 0.00 in0.0 mm 0.02 in0.5 mm
03:50 AM 47.9°F8.8°C 46.8°F8.2°C 96% Calm Calm -- 29.02 in982.7 mb - 0.00 in0.0 mm 0.02 in0.5 mm
04:00 AM 47.6°F8.7°C 46.5°F8.1°C 96% Calm Calm -- 29.01 in982.4 mb - 0.00 in0.0 mm 0.02 in0.5 mm
04:10 AM 47.2°F8.4°C 46.1°F7.8°C 96% Calm Calm -- 29.01 in982.4 mb - 0.00 in0.0 mm 0.02 in0.5 mm
04:20 AM 46.8°F8.2°C 45.7°F7.6°C 96% Calm Calm -- 29.01 in982.4 mb - 0.00 in0.0 mm 0.02 in0.5 mm
04:30 AM 46.5°F8.1°C 45.4°F7.4°C 96% Calm Calm -- 29.01 in982.4 mb - 0.00 in0.0 mm 0.02 in0.5 mm
04:40 AM 46.4°F8.0°C 45.3°F7.4°C 96% Calm Calm -- 29.01 in982.4 mb - 0.00 in0.0 mm 0.02 in0.5 mm
04:50 AM 46.7°F8.2°C 45.6°F7.6°C 96% Calm Calm -- 29.01 in982.4 mb - 0.00 in0.0 mm 0.02 in0.5 mm
05:00 AM 46.6°F8.1°C 45.5°F7.5°C 96% Calm Calm -- 29.01 in982.4 mb - 0.00 in0.0 mm 0.02 in0.5 mm
05:10 AM 46.3°F7.9°C 45.2°F7.3°C 96% Calm Calm -- 29.00 in982.1 mb - 0.00 in0.0 mm 0.02 in0.5 mm
05:20 AM 46.0°F7.8°C 44.9°F7.2°C 96% Calm Calm -- 29.00 in982.1 mb - 0.00 in0.0 mm 0.02 in0.5 mm
05:30 AM 45.8°F7.7°C 44.7°F7.1°C 96% Calm Calm -- 29.00 in982.1 mb - 0.00 in0.0 mm 0.02 in0.5 mm
05:40 AM 45.8°F7.7°C 45.0°F7.2°C 97% Calm Calm -- 29.00 in982.1 mb - 0.00 in0.0 mm 0.02 in0.5 mm
05:50 AM 45.7°F7.6°C 44.6°F7.0°C 96% Calm Calm -- 29.00 in982.1 mb - 0.00 in0.0 mm 0.02 in0.5 mm
06:00 AM 45.6°F7.6°C 44.5°F6.9°C 96% Calm Calm -- 29.00 in982.1 mb - 0.00 in0.0 mm 0.02 in0.5 mm
06:10 AM 45.4°F7.4°C 44.3°F6.8°C 96% Calm Calm -- 29.00 in982.1 mb - 0.00 in0.0 mm 0.02 in0.5 mm
06:20 AM 45.2°F7.3°C 44.1°F6.7°C 96% Calm Calm -- 28.99 in981.7 mb - 0.00 in0.0 mm 0.02 in0.5 mm
06:30 AM 45.2°F7.3°C 44.4°F6.9°C 97% Calm Calm -- 29.00 in982.1 mb - 0.00 in0.0 mm 0.02 in0.5 mm
06:40 AM 45.2°F7.3°C 44.4°F6.9°C 97% Calm Calm -- 28.99 in981.7 mb - 0.00 in0.0 mm 0.02 in0.5 mm
06:50 AM 45.2°F7.3°C 44.4°F6.9°C 97% Calm Calm -- 28.99 in981.7 mb - 0.00 in0.0 mm 0.02 in0.5 mm
07:00 AM 45.1°F7.3°C 44.3°F6.8°C 97% Calm Calm -- 28.99 in981.7 mb - 0.00 in0.0 mm 0.02 in0.5 mm
07:10 AM 45.3°F7.4°C 44.5°F6.9°C 97% Calm Calm -- 28.99 in981.7 mb - 0.00 in0.0 mm 0.02 in0.5 mm
07:20 AM 45.6°F7.6°C 44.8°F7.1°C 97% Calm Calm -- 28.98 in981.4 mb - 0.00 in0.0 mm 0.02 in0.5 mm
07:30 AM 46.1°F7.8°C 45.3°F7.4°C 97% Calm Calm -- 28.98 in981.4 mb - 0.00 in0.0 mm 0.02 in0.5 mm
07:40 AM 46.7°F8.2°C 45.9°F7.7°C 97% Calm Calm -- 28.98 in981.4 mb - 0.01 in0.3 mm 0.03 in0.8 mm
07:50 AM 47.3°F8.5°C 46.8°F8.2°C 98% Calm Calm -- 28.98 in981.4 mb - 0.00 in0.0 mm 0.03 in0.8 mm
08:00 AM 47.6°F8.7°C 46.8°F8.2°C 97% Calm Calm -- 28.98 in981.4 mb - 0.00 in0.0 mm 0.03 in0.8 mm
08:10 AM 47.7°F8.7°C 46.9°F8.3°C 97% Calm Calm -- 28.98 in981.4 mb - 0.00 in0.0 mm 0.03 in0.8 mm
08:20 AM 47.9°F8.8°C 47.1°F8.4°C 97% Calm Calm -- 28.97 in981.0 mb - 0.00 in0.0 mm 0.03 in0.8 mm
08:30 AM 48.2°F9.0°C 47.4°F8.6°C 97% Calm Calm 1.2 mph1.9 kmh 28.97 in981.0 mb - 0.00 in0.0 mm 0.03 in0.8 mm
08:40 AM 48.5°F9.2°C 47.7°F8.7°C 97% Calm Calm 4.6 mph7.4 kmh 28.97 in981.0 mb - 0.00 in0.0 mm 0.03 in0.8 mm
08:50 AM 48.7°F9.3°C 47.9°F8.8°C 97% Calm Calm -- 28.97 in981.0 mb - 0.01 in0.3 mm 0.04 in1.0 mm
09:00 AM 48.8°F9.3°C 48.0°F8.9°C 97% Calm Calm -- 28.97 in981.0 mb - 0.00 in0.0 mm 0.04 in1.0 mm
09:10 AM 49.3°F9.6°C 48.7°F9.3°C 98% Calm Calm -- 28.96 in980.7 mb - 0.00 in0.0 mm 0.04 in1.0 mm
09:20 AM 49.7°F9.8°C 49.2°F9.6°C 98% Calm Calm -- 28.96 in980.7 mb - 0.00 in0.0 mm 0.04 in1.0 mm
09:30 AM 49.8°F9.9°C 49.3°F9.6°C 98% Calm Calm -- 28.96 in980.7 mb - 0.00 in0.0 mm 0.04 in1.0 mm
09:40 AM 49.9°F9.9°C 49.4°F9.7°C 98% 1.2 mph SSE1.9 kmh SSE 3.5 mph5.6 kmh 28.96 in980.7 mb - 0.00 in0.0 mm 0.04 in1.0 mm
09:50 AM 50.1°F10.1°C 49.3°F9.6°C 97% Calm Calm -- 28.96 in980.7 mb - 0.00 in0.0 mm 0.04 in1.0 mm
10:00 AM 50.5°F10.3°C 50.0°F10.0°C 98% 2.3 mph S3.7 kmh S 5.8 mph9.3 kmh 28.96 in980.7 mb - 0.00 in0.0 mm 0.04 in1.0 mm
10:10 AM 51.3°F10.7°C 50.8°F10.4°C 98% Calm Calm -- 28.96 in980.7 mb - 0.00 in0.0 mm 0.04 in1.0 mm
10:20 AM 51.1°F10.6°C 50.3°F10.2°C 97% 1.2 mph SSW1.9 kmh SSW 5.8 mph9.3 kmh 28.96 in980.7 mb - 0.00 in0.0 mm 0.04 in1.0 mm
10:30 AM 50.5°F10.3°C 49.7°F9.8°C 97% Calm Calm -- 28.97 in981.0 mb - 0.00 in0.0 mm 0.04 in1.0 mm
10:40 AM 50.3°F10.2°C 49.5°F9.7°C 97% 1.2 mph SSW1.9 kmh SSW 5.8 mph9.3 kmh 28.97 in981.0 mb - 0.00 in0.0 mm 0.04 in1.0 mm
10:50 AM 50.4°F10.2°C 49.6°F9.8°C 97% Calm Calm -- 28.96 in980.7 mb - 0.00 in0.0 mm 0.04 in1.0 mm
11:00 AM 50.5°F10.3°C 49.7°F9.8°C 97% Calm Calm -- 28.97 in981.0 mb - 0.00 in0.0 mm 0.04 in1.0 mm
11:10 AM 50.6°F10.3°C 49.8°F9.9°C 97% 2.3 mph SW3.7 kmh SW 6.9 mph11.1 kmh 28.97 in981.0 mb - 0.00 in0.0 mm 0.04 in1.0 mm
11:20 AM 50.5°F10.3°C 49.7°F9.8°C 97% 2.3 mph SW3.7 kmh SW 4.6 mph7.4 kmh 28.96 in980.7 mb - 0.00 in0.0 mm 0.04 in1.0 mm
11:30 AM 50.5°F10.3°C 49.7°F9.8°C 97% Calm Calm -- 28.96 in980.7 mb - 0.00 in0.0 mm 0.04 in1.0 mm
11:40 AM 50.6°F10.3°C 49.8°F9.9°C 97% 1.2 mph SW1.9 kmh SW 3.5 mph5.6 kmh 28.97 in981.0 mb - 0.00 in0.0 mm 0.04 in1.0 mm
11:50 AM 50.8°F10.4°C 50.0°F10.0°C 97% 3.5 mph WSW5.6 kmh WSW 5.8 mph9.3 kmh 28.97 in981.0 mb - 0.00 in0.0 mm 0.04 in1.0 mm
12:00 PM 51.6°F10.9°C 50.8°F10.4°C 97% 1.2 mph W1.9 kmh W 1.2 mph1.9 kmh 28.97 in981.0 mb - 0.00 in0.0 mm 0.04 in1.0 mm
12:10 PM 52.2°F11.2°C 51.1°F10.6°C 96% 6.9 mph SW11.1 kmh SW 12.7 mph20.4 kmh 28.98 in981.4 mb - 0.00 in0.0 mm 0.04 in1.0 mm
12:20 PM 51.8°F11.0°C 50.4°F10.2°C 95% 1.2 mph W1.9 kmh W 6.9 mph11.1 kmh 28.98 in981.4 mb - 0.00 in0.0 mm 0.04 in1.0 mm
12:30 PM 52.3°F11.3°C 50.9°F10.5°C 95% 4.6 mph WSW7.4 kmh WSW 5.8 mph9.3 kmh 28.98 in981.4 mb - 0.00 in0.0 mm 0.04 in1.0 mm
12:40 PM 52.0°F11.1°C 50.0°F10.0°C 93% 6.9 mph WSW11.1 kmh WSW 11.5 mph18.5 kmh 28.99 in981.7 mb - 0.00 in0.0 mm 0.04 in1.0 mm
12:50 PM 51.9°F11.1°C 49.9°F9.9°C 93% 2.3 mph WSW3.7 kmh WSW 5.8 mph9.3 kmh 29.00 in982.1 mb - 0.00 in0.0 mm 0.04 in1.0 mm
01:00 PM 52.0°F11.1°C 50.0°F10.0°C 93% 2.3 mph WSW3.7 kmh WSW 4.6 mph7.4 kmh 29.00 in982.1 mb - 0.00 in0.0 mm 0.04 in1.0 mm
01:10 PM 51.9°F11.1°C 49.6°F9.8°C 92% Calm Calm -- 29.00 in982.1 mb - 0.00 in0.0 mm 0.04 in1.0 mm
01:20 PM 51.5°F10.8°C 49.3°F9.6°C 92% 2.3 mph SW3.7 kmh SW 9.2 mph14.8 kmh 29.01 in982.4 mb - 0.00 in0.0 mm 0.04 in1.0 mm
01:30 PM 51.5°F10.8°C 49.3°F9.6°C 92% 2.3 mph SW3.7 kmh SW 3.5 mph5.6 kmh 29.01 in982.4 mb - 0.00 in0.0 mm 0.04 in1.0 mm
01:40 PM 51.6°F10.9°C 49.4°F9.7°C 92% Calm Calm -- 29.02 in982.7 mb - 0.00 in0.0 mm 0.04 in1.0 mm
01:50 PM 51.4°F10.8°C 48.9°F9.4°C 91% Calm Calm 3.5 mph5.6 kmh 29.02 in982.7 mb - 0.00 in0.0 mm 0.04 in1.0 mm
02:00 PM 51.0°F10.6°C 48.8°F9.3°C 92% 1.2 mph WSW1.9 kmh WSW 4.6 mph7.4 kmh 29.03 in983.1 mb - 0.00 in0.0 mm 0.04 in1.0 mm
02:10 PM 50.8°F10.4°C 48.6°F9.2°C 92% 1.2 mph SW1.9 kmh SW 3.5 mph5.6 kmh 29.04 in983.4 mb - 0.00 in0.0 mm 0.04 in1.0 mm
02:20 PM 50.7°F10.4°C 48.7°F9.3°C 93% 2.3 mph SW3.7 kmh SW 8.1 mph13.0 kmh 29.04 in983.4 mb - 0.00 in0.0 mm 0.04 in1.0 mm
02:30 PM 50.6°F10.3°C 48.7°F9.3°C 93% 1.2 mph WSW1.9 kmh WSW 1.2 mph1.9 kmh 29.05 in983.7 mb - 0.00 in0.0 mm 0.04 in1.0 mm
02:40 PM 50.4°F10.2°C 48.5°F9.2°C 93% 1.2 mph SW1.9 kmh SW 8.1 mph13.0 kmh 29.06 in984.1 mb - 0.00 in0.0 mm 0.04 in1.0 mm
02:50 PM 50.3°F10.2°C 48.6°F9.2°C 94% 3.5 mph NW5.6 kmh NW 10.4 mph16.7 kmh 29.06 in984.1 mb - 0.00 in0.0 mm 0.04 in1.0 mm
03:00 PM 50.0°F10.0°C 48.3°F9.1°C 94% 1.2 mph WNW1.9 kmh WNW 5.8 mph9.3 kmh 29.07 in984.4 mb - 0.00 in0.0 mm 0.04 in1.0 mm
03:10 PM 49.9°F9.9°C 48.2°F9.0°C 94% Calm Calm -- 29.07 in984.4 mb - 0.00 in0.0 mm 0.04 in1.0 mm
03:20 PM 49.8°F9.9°C 48.4°F9.1°C 95% 1.2 mph WSW1.9 kmh WSW -- 29.08 in984.8 mb - 0.00 in0.0 mm 0.04 in1.0 mm
03:30 PM 49.7°F9.8°C 48.1°F8.9°C 94% Calm Calm -- 29.08 in984.8 mb - 0.00 in0.0 mm 0.04 in1.0 mm
03:40 PM 49.7°F9.8°C 48.3°F9.1°C 95% Calm Calm 3.5 mph5.6 kmh 29.09 in985.1 mb - 0.00 in0.0 mm 0.04 in1.0 mm
03:50 PM 49.7°F9.8°C 48.3°F9.1°C 95% Calm Calm 3.5 mph5.6 kmh 29.09 in985.1 mb - 0.00 in0.0 mm 0.04 in1.0 mm
04:00 PM 49.6°F9.8°C 48.2°F9.0°C 95% Calm Calm -- 29.10 in985.4 mb - 0.00 in0.0 mm 0.04 in1.0 mm
04:10 PM 49.6°F9.8°C 48.2°F9.0°C 95% 2.3 mph WSW3.7 kmh WSW 2.3 mph3.7 kmh 29.11 in985.8 mb - 0.00 in0.0 mm 0.04 in1.0 mm
04:20 PM 49.5°F9.7°C 48.1°F8.9°C 95% 3.5 mph SW5.6 kmh SW 5.8 mph9.3 kmh 29.11 in985.8 mb - 0.00 in0.0 mm 0.04 in1.0 mm
04:30 PM 49.5°F9.7°C 48.1°F8.9°C 95% Calm Calm 1.2 mph1.9 kmh 29.12 in986.1 mb - 0.00 in0.0 mm 0.04 in1.0 mm
04:40 PM 49.5°F9.7°C 48.1°F8.9°C 95% Calm Calm -- 29.12 in986.1 mb - 0.00 in0.0 mm 0.04 in1.0 mm
04:50 PM 49.5°F9.7°C 48.1°F8.9°C 95% Calm Calm 3.5 mph5.6 kmh 29.13 in986.5 mb - 0.00 in0.0 mm 0.04 in1.0 mm
05:00 PM 49.5°F9.7°C 48.1°F8.9°C 95% 1.2 mph SW1.9 kmh SW 3.5 mph5.6 kmh 29.13 in986.5 mb - 0.00 in0.0 mm 0.04 in1.0 mm
05:10 PM 49.5°F9.7°C 47.8°F8.8°C 94% Calm Calm 5.8 mph9.3 kmh 29.14 in986.8 mb - 0.00 in0.0 mm 0.04 in1.0 mm
05:20 PM 49.5°F9.7°C 47.8°F8.8°C 94% Calm Calm -- 29.14 in986.8 mb - 0.00 in0.0 mm 0.04 in1.0 mm
05:30 PM 49.5°F9.7°C 47.8°F8.8°C 94% Calm Calm -- 29.14 in986.8 mb - 0.00 in0.0 mm 0.04 in1.0 mm
05:40 PM 49.4°F9.7°C 47.7°F8.7°C 94% 3.5 mph SW5.6 kmh SW 5.8 mph9.3 kmh 29.14 in986.8 mb - 0.00 in0.0 mm 0.04 in1.0 mm
05:50 PM 49.3°F9.6°C 47.4°F8.6°C 93% 3.5 mph WSW5.6 kmh WSW 5.8 mph9.3 kmh 29.15 in987.1 mb - 0.00 in0.0 mm 0.04 in1.0 mm
06:00 PM 49.2°F9.6°C 47.0°F8.3°C 92% 3.5 mph SW5.6 kmh SW 6.9 mph11.1 kmh 29.15 in987.1 mb - 0.00 in0.0 mm 0.04 in1.0 mm
06:10 PM 49.2°F9.6°C 46.9°F8.3°C 92% 2.3 mph SW3.7 kmh SW 9.2 mph14.8 kmh 29.16 in987.5 mb - 0.00 in0.0 mm 0.04 in1.0 mm
06:20 PM 49.2°F9.6°C 46.9°F8.3°C 92% 3.5 mph SW5.6 kmh SW 8.1 mph13.0 kmh 29.16 in987.5 mb - 0.00 in0.0 mm 0.04 in1.0 mm
06:30 PM 49.0°F9.4°C 46.8°F8.2°C 92% 1.2 mph SW1.9 kmh SW 6.9 mph11.1 kmh 29.16 in987.5 mb - 0.00 in0.0 mm 0.04 in1.0 mm
06:40 PM 48.8°F9.3°C 46.5°F8.1°C 92% Calm Calm 3.5 mph5.6 kmh 29.17 in987.8 mb - 0.00 in0.0 mm 0.04 in1.0 mm
06:50 PM 48.5°F9.2°C 46.3°F7.9°C 92% Calm Calm -- 29.17 in987.8 mb - 0.00 in0.0 mm 0.04 in1.0 mm
07:00 PM 48.1°F8.9°C 45.9°F7.7°C 92% Calm Calm 1.2 mph1.9 kmh 29.18 in988.1 mb - 0.00 in0.0 mm 0.04 in1.0 mm
07:10 PM 48.1°F8.9°C 46.2°F7.9°C 93% Calm Calm 4.6 mph7.4 kmh 29.18 in988.1 mb - 0.00 in0.0 mm 0.04 in1.0 mm
07:20 PM 48.3°F9.1°C 46.4°F8.0°C 93% 1.2 mph SW1.9 kmh SW 3.5 mph5.6 kmh 29.18 in988.1 mb - 0.00 in0.0 mm 0.04 in1.0 mm
07:30 PM 48.4°F9.1°C 46.5°F8.1°C 93% Calm Calm 5.8 mph9.3 kmh 29.18 in988.1 mb - 0.00 in0.0 mm 0.04 in1.0 mm
07:40 PM 48.5°F9.2°C 46.5°F8.1°C 93% Calm Calm -- 29.18 in988.1 mb - 0.00 in0.0 mm 0.04 in1.0 mm
07:50 PM 48.4°F9.1°C 46.5°F8.1°C 93% 2.3 mph SW3.7 kmh SW 6.9 mph11.1 kmh 29.19 in988.5 mb - 0.00 in0.0 mm 0.04 in1.0 mm
08:10 PM 48.5°F9.2°C 46.9°F8.3°C 94% Calm Calm -- 29.19 in988.5 mb - 0.00 in0.0 mm 0.04 in1.0 mm
08:20 PM 48.7°F9.3°C 47.1°F8.4°C 94% 1.2 mph SW1.9 kmh SW 4.6 mph7.4 kmh 29.20 in988.8 mb - 0.00 in0.0 mm 0.04 in1.0 mm
08:30 PM 48.7°F9.3°C 47.1°F8.4°C 94% Calm Calm -- 29.20 in988.8 mb - 0.00 in0.0 mm 0.04 in1.0 mm
08:40 PM 48.7°F9.3°C 47.1°F8.4°C 94% Calm Calm -- 29.20 in988.8 mb - 0.00 in0.0 mm 0.04 in1.0 mm
08:50 PM 48.7°F9.3°C 47.1°F8.4°C 94% 1.2 mph SW1.9 kmh SW 6.9 mph11.1 kmh 29.21 in989.2 mb - 0.00 in0.0 mm 0.04 in1.0 mm
09:00 PM 48.7°F9.3°C 47.1°F8.4°C 94% 2.3 mph SW3.7 kmh SW 4.6 mph7.4 kmh 29.21 in989.2 mb - 0.00 in0.0 mm 0.04 in1.0 mm
09:10 PM 48.6°F9.2°C 47.0°F8.3°C 94% Calm Calm -- 29.21 in989.2 mb - 0.00 in0.0 mm 0.04 in1.0 mm
09:20 PM 48.5°F9.2°C 46.9°F8.3°C 94% Calm Calm 1.2 mph1.9 kmh 29.21 in989.2 mb - 0.00 in0.0 mm 0.04 in1.0 mm
09:30 PM 48.5°F9.2°C 46.9°F8.3°C 94% Calm Calm 3.5 mph5.6 kmh 29.22 in989.5 mb - 0.00 in0.0 mm 0.04 in1.0 mm
09:40 PM 48.6°F9.2°C 46.9°F8.3°C 94% 2.3 mph SSW3.7 kmh SSW 4.6 mph7.4 kmh 29.22 in989.5 mb - 0.00 in0.0 mm 0.04 in1.0 mm
09:50 PM 48.6°F9.2°C 47.0°F8.3°C 94% 2.3 mph SW3.7 kmh SW 3.5 mph5.6 kmh 29.22 in989.5 mb - 0.00 in0.0 mm 0.04 in1.0 mm
10:00 PM 48.6°F9.2°C 47.0°F8.3°C 94% Calm Calm -- 29.23 in989.8 mb - 0.00 in0.0 mm 0.04 in1.0 mm
10:10 PM 48.6°F9.2°C 47.0°F8.3°C 94% 3.5 mph SW5.6 kmh SW 6.9 mph11.1 kmh 29.23 in989.8 mb - 0.00 in0.0 mm 0.04 in1.0 mm
10:20 PM 48.5°F9.2°C 46.9°F8.3°C 94% Calm Calm 1.2 mph1.9 kmh 29.23 in989.8 mb - 0.00 in0.0 mm 0.04 in1.0 mm
10:30 PM 48.6°F9.2°C 47.0°F8.3°C 94% 2.3 mph SW3.7 kmh SW 8.1 mph13.0 kmh 29.23 in989.8 mb - 0.00 in0.0 mm 0.04 in1.0 mm
10:40 PM 48.6°F9.2°C 46.9°F8.3°C 94% Calm Calm 4.6 mph7.4 kmh 29.23 in989.8 mb - 0.00 in0.0 mm 0.04 in1.0 mm
10:50 PM 48.6°F9.2°C 46.9°F8.3°C 94% 2.3 mph SW3.7 kmh SW 6.9 mph11.1 kmh 29.23 in989.8 mb - 0.00 in0.0 mm 0.04 in1.0 mm
11:00 PM 48.5°F9.2°C 46.9°F8.3°C 94% 4.6 mph SW7.4 kmh SW 9.2 mph14.8 kmh 29.23 in989.8 mb - 0.00 in0.0 mm 0.04 in1.0 mm
11:10 PM 48.5°F9.2°C 46.9°F8.3°C 94% 1.2 mph SW1.9 kmh SW 4.6 mph7.4 kmh 29.24 in990.2 mb - 0.00 in0.0 mm 0.04 in1.0 mm
11:20 PM 48.5°F9.2°C 46.9°F8.3°C 94% 1.2 mph SW1.9 kmh SW 4.6 mph7.4 kmh 29.24 in990.2 mb - 0.00 in0.0 mm 0.04 in1.0 mm
11:30 PM 48.5°F9.2°C 46.9°F8.3°C 94% Calm Calm 4.6 mph7.4 kmh 29.25 in990.5 mb - 0.00 in0.0 mm 0.04 in1.0 mm
11:40 PM 48.4°F9.1°C 46.8°F8.2°C 94% 3.5 mph SW5.6 kmh SW 6.9 mph11.1 kmh 29.25 in990.5 mb - 0.00 in0.0 mm 0.04 in1.0 mm
11:50 PM 48.4°F9.1°C 46.7°F8.2°C 94% 2.3 mph SW3.7 kmh SW 5.8 mph9.3 kmh 29.25 in990.5 mb - 0.00 in0.0 mm 0.04 in1.0 mm